Time;durP1;ratioP1;P1;durP2;ratioP2;P2;SDS_P1;SDS_P2;PMS_P1;PMS_P2;Temp;Humidity;BMP_temperature;BMP_pressure;BME280_temperature;BME280_humidity;BME280_pressure;Samples;Min_cycle;Max_cycle;Signal;HPM_P1;HPM_P2
2024/01/07 00:02:25;;;;;;;16.50;13.83;;;5.10;1.00;;;;;;5096764;28;20387;-42
2024/01/07 00:04:51;;;;;;;15.70;14.07;;;5.10;1.00;;;;;;5094507;28;20176;-44
2024/01/07 00:07:20;;;;;;;19.03;14.87;;;5.10;1.00;;;;;;5095770;28;20208;-45
2024/01/07 00:09:46;;;;;;;18.70;14.30;;;5.10;1.00;;;;;;5095456;28;20693;-41
2024/01/07 00:12:11;;;;;;;18.00;13.43;;;5.10;1.00;;;;;;5094671;28;20445;-42
2024/01/07 00:14:37;;;;;;;17.93;14.40;;;5.00;1.00;;;;;;5094594;28;20180;-43
2024/01/07 00:17:03;;;;;;;19.27;15.37;;;5.00;1.00;;;;;;5096511;28;20204;-42
2024/01/07 00:19:31;;;;;;;18.50;14.67;;;5.00;1.00;;;;;;5097510;28;20210;-45
2024/01/07 00:21:56;;;;;;;19.27;14.37;;;5.00;1.00;;;;;;5096805;28;20202;-42
2024/01/07 00:24:25;;;;;;;17.07;14.20;;;5.00;1.00;;;;;;5096397;28;20415;-44
2024/01/07 00:26:51;;;;;;;16.47;13.70;;;5.00;1.00;;;;;;5096607;28;20218;-42
2024/01/07 00:29:16;;;;;;;14.77;12.47;;;4.90;1.00;;;;;;5096572;28;20731;-42
2024/01/07 00:31:42;;;;;;;16.83;12.80;;;4.90;1.00;;;;;;5097764;28;20426;-42
2024/01/07 00:34:07;;;;;;;15.40;12.20;;;5.00;1.00;;;;;;5100838;28;20329;-46
2024/01/07 00:36:33;;;;;;;19.03;13.77;;;5.10;1.00;;;;;;5098016;28;20564;-43
2024/01/07 00:38:58;;;;;;;15.97;13.17;;;5.10;1.00;;;;;;5099765;28;20263;-42
2024/01/07 00:41:24;;;;;;;15.87;12.63;;;5.10;1.00;;;;;;5098869;28;20192;-41
2024/01/07 00:43:50;;;;;;;14.93;12.73;;;5.00;1.00;;;;;;5098748;28;20389;-43
2024/01/07 00:46:15;;;;;;;16.40;12.70;;;4.90;1.00;;;;;;5100469;28;20187;-45
2024/01/07 00:48:41;;;;;;;18.00;13.43;;;5.00;1.00;;;;;;5118493;28;20180;-41
2024/01/07 00:51:07;;;;;;;17.33;12.77;;;5.40;1.00;;;;;;5120053;28;20591;-46
2024/01/07 00:53:32;;;;;;;14.80;11.90;;;5.80;1.00;;;;;;5120169;28;20183;-45
2024/01/07 00:55:58;;;;;;;17.67;14.23;;;6.00;1.00;;;;;;5104135;28;20203;-41
2024/01/07 00:58:23;;;;;;;14.50;13.00;;;6.10;1.00;;;;;;5119624;28;20211;-41
2024/01/07 01:00:49;;;;;;;16.20;13.70;;;6.00;1.00;;;;;;5121409;28;20179;-46
2024/01/07 01:03:14;;;;;;;19.77;15.07;;;5.80;1.00;;;;;;5104870;28;20203;-46
2024/01/07 01:05:40;;;;;;;17.10;12.63;;;5.70;1.00;;;;;;5100681;28;20203;-44
2024/01/07 01:08:06;;;;;;;16.93;14.50;;;5.60;1.00;;;;;;5100140;28;20627;-43
2024/01/07 01:10:32;;;;;;;14.43;12.43;;;5.50;99.90;;;;;;5100055;28;20188;-42
2024/01/07 01:12:57;;;;;;;18.47;13.50;;;5.40;99.90;;;;;;5100254;28;20189;-42
2024/01/07 01:15:24;;;;;;;15.87;13.50;;;5.30;99.90;;;;;;5101557;28;20188;-42
2024/01/07 01:17:50;;;;;;;20.97;16.77;;;5.20;99.90;;;;;;5100879;28;20208;-43
2024/01/07 01:20:17;;;;;;;18.40;14.80;;;5.10;99.90;;;;;;5101899;28;20421;-43
2024/01/07 01:22:42;;;;;;;21.43;14.90;;;5.00;1.00;;;;;;5083044;28;20458;-43
2024/01/07 01:25:08;;;;;;;19.67;15.00;;;5.00;1.00;;;;;;5098569;28;20492;-44
2024/01/07 01:27:34;;;;;;;21.13;16.83;;;4.90;1.00;;;;;;5081656;28;20558;-43
2024/01/07 01:29:59;;;;;;;21.33;14.83;;;4.90;1.00;;;;;;5100004;28;20245;-44
2024/01/07 01:32:25;;;;;;;22.13;15.60;;;4.90;1.00;;;;;;5099912;28;20201;-43
2024/01/07 01:34:51;;;;;;;20.80;15.80;;;4.80;1.00;;;;;;5100411;28;20192;-47
2024/01/07 01:37:17;;;;;;;24.00;15.93;;;4.80;1.00;;;;;;5082799;28;20883;-42
2024/01/07 01:39:44;;;;;;;24.43;14.90;;;4.70;1.00;;;;;;5101427;28;20250;-43
2024/01/07 01:42:10;;;;;;;21.47;15.30;;;4.80;1.00;;;;;;5100649;28;20465;-44
2024/01/07 01:44:35;;;;;;;22.67;16.10;;;4.70;1.00;;;;;;5099572;28;20502;-45
2024/01/07 01:47:01;;;;;;;23.17;15.37;;;4.60;1.00;;;;;;5100587;28;20172;-41
2024/01/07 01:49:27;;;;;;;23.47;15.67;;;4.60;1.00;;;;;;5082775;28;20203;-43
2024/01/07 01:51:53;;;;;;;25.73;15.50;;;4.60;1.00;;;;;;5099852;28;20824;-43
2024/01/07 01:54:20;;;;;;;26.10;14.57;;;4.50;1.00;;;;;;5099798;28;20437;-42
2024/01/07 01:56:46;;;;;;;23.37;14.87;;;4.50;1.00;;;;;;5099286;28;20220;-41
2024/01/07 01:59:15;;;;;;;26.90;17.43;;;4.50;1.00;;;;;;5099422;28;20426;-45
2024/01/07 02:02:00;;;;;;;25.40;15.50;;;4.50;1.00;;;;;;5104450;28;20425;-43
2024/01/07 02:04:36;;;;;;;26.90;14.87;;;4.50;1.00;;;;;;5116075;28;20425;-45
2024/01/07 02:07:04;;;;;;;28.70;16.43;;;4.50;1.00;;;;;;5119961;28;20512;-41
2024/01/07 02:09:30;;;;;;;43.17;17.07;;;4.50;1.00;;;;;;5120192;28;20815;-43
2024/01/07 02:12:11;;;;;;;25.90;13.57;;;4.50;1.00;;;;;;5116379;28;20462;-42
2024/01/07 02:14:39;;;;;;;28.27;14.57;;;4.40;1.00;;;;;;5102460;28;20206;-43
2024/01/07 02:17:05;;;;;;;24.50;14.77;;;4.40;1.00;;;;;;5118785;28;20473;-41
2024/01/07 02:19:31;;;;;;;27.63;16.20;;;4.40;1.00;;;;;;5118624;28;20442;-41
2024/01/07 02:21:56;;;;;;;37.70;16.50;;;4.40;1.00;;;;;;5119041;28;20692;-44
2024/01/07 02:24:22;;;;;;;22.80;14.80;;;4.30;1.00;;;;;;5103761;28;20278;-46
2024/01/07 02:26:48;;;;;;;31.80;18.83;;;4.30;1.00;;;;;;5098699;28;20181;-43
2024/01/07 02:29:13;;;;;;;23.80;14.33;;;4.30;1.00;;;;;;5097186;28;20770;-43
2024/01/07 02:31:39;;;;;;;30.23;15.90;;;4.30;1.00;;;;;;5096532;28;20266;-42
2024/01/07 02:34:04;;;;;;;29.87;17.07;;;4.30;1.00;;;;;;5097128;28;20215;-44
2024/01/07 02:36:30;;;;;;;28.33;17.03;;;4.20;1.00;;;;;;5079294;28;20270;-44
2024/01/07 02:38:55;;;;;;;43.47;17.47;;;4.20;1.00;;;;;;5097270;28;20547;-42
2024/01/07 02:41:25;;;;;;;33.33;17.77;;;4.20;1.00;;;;;;5096361;28;20204;-43
2024/01/07 02:43:51;;;;;;;27.10;17.23;;;4.20;1.00;;;;;;5096609;28;20313;-44
2024/01/07 02:46:16;;;;;;;25.87;16.43;;;4.20;1.00;;;;;;5096645;28;20418;-44
2024/01/07 02:48:43;;;;;;;26.50;17.00;;;4.30;1.00;;;;;;5096716;28;20393;-42
2024/01/07 02:51:09;;;;;;;28.90;16.80;;;4.20;1.00;;;;;;5096575;28;20192;-42
2024/01/07 02:53:34;;;;;;;29.87;17.40;;;4.30;1.00;;;;;;5095321;28;20573;-43
2024/01/07 02:56:00;;;;;;;29.70;19.20;;;4.30;1.00;;;;;;5094202;28;20198;-44
2024/01/07 02:58:25;;;;;;;17.80;10.07;;;4.30;1.00;;;;;;5111814;28;20262;-48
2024/01/07 03:00:51;;;;;;;27.27;14.00;;;5.00;1.00;;;;;;5115747;28;20435;-47
2024/01/07 03:03:17;;;;;;;35.33;19.20;;;6.80;1.00;;;;;;5096275;28;20467;-47
2024/01/07 03:05:42;;;;;;;35.23;22.37;;;8.10;1.00;;;;;;5097270;28;20425;-40
2024/01/07 03:08:08;;;;;;;31.27;21.50;;;8.30;1.00;;;;;;5097351;28;20184;-39
2024/01/07 03:10:33;;;;;;;27.57;19.60;;;7.70;1.00;;;;;;5098271;28;20476;-38
2024/01/07 03:13:00;;;;;;;31.33;21.20;;;7.10;1.00;;;;;;5112112;28;20588;-38
2024/01/07 03:15:26;;;;;;;27.13;19.63;;;6.50;1.00;;;;;;5118546;28;20534;-40
2024/01/07 03:17:51;;;;;;;25.90;18.67;;;5.90;1.00;;;;;;5118282;28;20572;-39
2024/01/07 03:20:17;;;;;;;27.80;19.67;;;5.60;1.00;;;;;;5117994;28;20262;-40
2024/01/07 03:22:42;;;;;;;27.33;19.60;;;5.30;1.00;;;;;;5116225;28;20262;-38
2024/01/07 03:25:08;;;;;;;25.83;18.33;;;5.20;1.00;;;;;;5116616;28;20279;-37
2024/01/07 03:27:33;;;;;;;26.83;19.17;;;5.00;1.00;;;;;;5117315;28;20215;-39
2024/01/07 03:29:59;;;;;;;29.23;20.07;;;4.90;1.00;;;;;;5117795;28;20187;-38
2024/01/07 03:32:26;;;;;;;26.30;19.47;;;4.70;1.00;;;;;;5115214;28;20186;-39
2024/01/07 03:34:51;;;;;;;26.67;19.03;;;4.60;1.00;;;;;;5112694;28;20204;-40
2024/01/07 03:37:17;;;;;;;23.20;18.40;;;4.60;1.00;;;;;;5095870;28;20470;-38
2024/01/07 03:39:43;;;;;;;26.17;18.67;;;4.50;1.00;;;;;;5095337;28;20180;-38
2024/01/07 03:42:11;;;;;;;23.27;18.00;;;4.50;1.00;;;;;;5095126;28;20180;-41
2024/01/07 03:44:38;;;;;;;26.07;19.17;;;4.40;1.00;;;;;;5111207;28;20505;-38
2024/01/07 03:47:04;;;;;;;23.40;17.90;;;4.40;1.00;;;;;;5096413;28;20422;-38
2024/01/07 03:49:29;;;;;;;25.07;18.77;;;4.40;1.00;;;;;;5097272;28;20430;-37
2024/01/07 03:51:55;;;;;;;22.50;16.80;;;4.40;1.00;;;;;;5097172;28;20430;-37
2024/01/07 03:54:20;;;;;;;26.13;18.47;;;4.40;1.00;;;;;;5097547;28;20263;-38
2024/01/07 03:56:46;;;;;;;23.37;17.57;;;4.40;1.00;;;;;;5096949;28;20227;-40
2024/01/07 03:59:11;;;;;;;24.10;17.17;;;4.40;1.00;;;;;;5096844;28;20180;-38
2024/01/07 04:01:37;;;;;;;21.13;16.50;;;4.40;1.00;;;;;;5097249;28;20342;-38
2024/01/07 04:04:02;;;;;;;23.20;17.47;;;4.40;1.00;;;;;;5096814;28;20188;-38
2024/01/07 04:06:29;;;;;;;28.13;17.40;;;4.40;1.00;;;;;;5097115;28;20196;-39
2024/01/07 04:08:54;;;;;;;23.70;17.73;;;4.40;1.00;;;;;;5097301;28;20184;-38
2024/01/07 04:11:20;;;;;;;25.67;17.13;;;4.40;1.00;;;;;;5097153;28;20844;-38
2024/01/07 04:13:45;;;;;;;21.43;16.40;;;4.30;1.00;;;;;;5097284;28;20191;-38
2024/01/07 04:16:20;;;;;;;24.57;18.27;;;4.30;1.00;;;;;;5114999;28;20195;-39
2024/01/07 04:18:46;;;;;;;23.63;17.70;;;4.30;1.00;;;;;;5113412;28;20184;-39
2024/01/07 04:21:12;;;;;;;22.07;16.20;;;4.30;1.00;;;;;;5097387;28;20532;-38
2024/01/07 04:23:41;;;;;;;20.53;16.60;;;4.40;1.00;;;;;;5096858;28;20434;-38
2024/01/07 04:26:09;;;;;;;23.87;18.57;;;4.40;1.00;;;;;;5110481;28;20179;-39
2024/01/07 04:28:35;;;;;;;24.30;17.40;;;4.40;1.00;;;;;;5117561;28;20501;-39
2024/01/07 04:31:00;;;;;;;21.80;16.17;;;4.40;1.00;;;;;;5116014;28;20712;-39
2024/01/07 04:33:26;;;;;;;24.03;16.70;;;4.40;1.00;;;;;;5117337;28;20270;-39
2024/01/07 04:35:51;;;;;;;20.80;17.13;;;4.40;1.00;;;;;;5115552;28;20560;-38
2024/01/07 04:38:17;;;;;;;23.17;17.40;;;4.30;1.00;;;;;;5117262;28;20328;-39
2024/01/07 04:40:42;;;;;;;21.10;15.93;;;4.30;1.00;;;;;;5116076;28;20191;-37
2024/01/07 04:43:08;;;;;;;23.97;16.40;;;4.30;1.00;;;;;;5115887;28;20422;-40
2024/01/07 04:45:33;;;;;;;21.90;16.70;;;4.30;1.00;;;;;;5115635;28;20337;-38
2024/01/07 04:47:59;;;;;;;21.73;15.77;;;4.30;1.00;;;;;;5116945;28;20722;-39
2024/01/07 04:50:24;;;;;;;24.67;17.70;;;4.30;1.00;;;;;;5115940;28;20257;-39
2024/01/07 04:52:50;;;;;;;19.03;15.17;;;4.30;1.00;;;;;;5117225;28;20650;-39
2024/01/07 04:55:16;;;;;;;20.30;15.80;;;4.20;1.00;;;;;;5116279;28;20183;-39
2024/01/07 04:57:41;;;;;;;18.07;15.50;;;4.20;1.00;;;;;;5116546;28;20258;-40
2024/01/07 05:00:07;;;;;;;21.43;16.50;;;4.20;1.00;;;;;;5116823;28;20229;-35
2024/01/07 05:02:32;;;;;;;20.47;16.20;;;4.20;1.00;;;;;;5116736;28;20176;-38
2024/01/07 05:04:58;;;;;;;18.63;16.33;;;4.20;1.00;;;;;;5115982;28;20397;-43
2024/01/07 05:07:24;;;;;;;18.43;14.70;;;4.20;1.00;;;;;;5095114;28;20516;-37
2024/01/07 05:09:50;;;;;;;20.50;16.90;;;4.20;1.00;;;;;;5094488;28;20422;-38
2024/01/07 05:12:15;;;;;;;17.47;15.20;;;4.20;1.00;;;;;;5092821;28;20926;-36
2024/01/07 05:14:42;;;;;;;18.73;14.27;;;4.10;1.00;;;;;;5092841;28;20189;-38
2024/01/07 05:17:08;;;;;;;15.77;13.40;;;4.10;1.00;;;;;;5108831;28;20211;-40
2024/01/07 05:19:33;;;;;;;17.97;14.03;;;4.10;1.00;;;;;;5117783;28;20556;-38
2024/01/07 05:21:59;;;;;;;17.40;12.53;;;4.10;1.00;;;;;;5099662;28;20215;-38
2024/01/07 05:24:25;;;;;;;17.07;13.03;;;4.10;1.00;;;;;;5099557;28;20636;-38
2024/01/07 05:26:50;;;;;;;17.10;13.43;;;4.10;1.00;;;;;;5098890;28;20325;-38
2024/01/07 05:29:16;;;;;;;16.33;13.47;;;4.10;1.00;;;;;;5099266;28;20877;-37
2024/01/07 05:31:41;;;;;;;16.10;13.00;;;4.10;1.00;;;;;;5098191;28;20563;-39
2024/01/07 05:34:07;;;;;;;17.43;13.63;;;4.10;1.00;;;;;;5099723;28;20177;-38
2024/01/07 05:36:33;;;;;;;17.40;14.20;;;4.10;1.00;;;;;;5099265;28;20299;-39
2024/01/07 05:38:58;;;;;;;15.80;12.20;;;4.10;1.00;;;;;;5099300;28;20172;-41
2024/01/07 05:41:24;;;;;;;15.90;12.70;;;4.10;1.00;;;;;;5098857;28;20259;-40
2024/01/07 05:43:49;;;;;;;16.67;13.00;;;4.10;1.00;;;;;;5098375;28;20290;-37
2024/01/07 05:46:15;;;;;;;13.70;11.77;;;4.10;1.00;;;;;;5099721;28;20250;-39
2024/01/07 05:48:43;;;;;;;14.83;11.93;;;4.10;1.00;;;;;;5096803;28;20275;-38
2024/01/07 05:51:09;;;;;;;14.40;12.90;;;4.00;1.00;;;;;;5095684;28;20295;-38
2024/01/07 05:53:34;;;;;;;15.90;12.93;;;4.10;1.00;;;;;;5094938;28;20498;-41
2024/01/07 05:56:00;;;;;;;13.13;10.53;;;4.10;1.00;;;;;;5092514;28;20223;-38
2024/01/07 05:58:26;;;;;;;14.10;12.00;;;4.00;1.00;;;;;;5095503;28;20544;-38
2024/01/07 06:00:51;;;;;;;13.40;12.00;;;4.10;1.00;;;;;;5096681;28;20423;-37
2024/01/07 06:03:17;;;;;;;16.70;13.53;;;4.00;1.00;;;;;;5096651;28;20173;-38
2024/01/07 06:05:42;;;;;;;15.50;12.43;;;4.00;1.00;;;;;;5097944;28;20184;-39
2024/01/07 06:08:08;;;;;;;16.10;13.20;;;4.00;1.00;;;;;;5097979;28;20172;-38
2024/01/07 06:10:34;;;;;;;15.23;12.20;;;4.00;1.00;;;;;;5097569;28;20184;-38
2024/01/07 06:13:00;;;;;;;15.27;12.30;;;3.90;1.00;;;;;;5097853;28;20289;-39
2024/01/07 06:15:25;;;;;;;14.87;12.80;;;3.90;1.00;;;;;;5098032;28;20184;-37
2024/01/07 06:17:51;;;;;;;16.00;13.37;;;3.90;1.00;;;;;;5098471;28;20469;-38
2024/01/07 06:20:17;;;;;;;16.87;13.37;;;3.90;1.00;;;;;;5098416;28;20233;-38
2024/01/07 06:22:43;;;;;;;17.40;14.30;;;3.90;1.00;;;;;;5098707;28;20422;-38
2024/01/07 06:25:09;;;;;;;15.67;13.50;;;3.90;1.00;;;;;;5097844;28;20228;-39
2024/01/07 06:27:34;;;;;;;16.60;13.40;;;3.90;1.00;;;;;;5098127;28;20271;-39
2024/01/07 06:30:00;;;;;;;20.23;14.60;;;3.90;1.00;;;;;;5096684;28;20505;-38
2024/01/07 06:32:25;;;;;;;17.33;13.03;;;3.90;1.00;;;;;;5096672;28;20566;-39
2024/01/07 06:34:52;;;;;;;16.77;12.93;;;3.90;1.00;;;;;;5096774;28;20216;-39
2024/01/07 06:37:17;;;;;;;15.37;13.30;;;3.90;1.00;;;;;;5097084;28;20348;-41
2024/01/07 06:39:43;;;;;;;15.97;13.20;;;3.80;1.00;;;;;;5097044;28;20466;-39
2024/01/07 06:42:08;;;;;;;16.63;13.60;;;3.80;1.00;;;;;;5097364;28;20216;-46
2024/01/07 06:44:34;;;;;;;15.53;13.50;;;3.90;1.00;;;;;;5097677;28;20670;-38
2024/01/07 06:46:59;;;;;;;15.47;13.70;;;3.90;1.00;;;;;;5098766;28;20180;-38
2024/01/07 06:49:25;;;;;;;17.67;14.67;;;3.90;1.00;;;;;;5098214;28;20280;-37
2024/01/07 06:51:50;;;;;;;16.50;14.70;;;3.90;1.00;;;;;;5098274;28;20191;-38
2024/01/07 06:54:16;;;;;;;17.10;14.93;;;3.90;1.00;;;;;;5098371;28;20180;-38
2024/01/07 06:56:42;;;;;;;20.30;16.23;;;3.90;1.00;;;;;;5098485;28;20330;-37
2024/01/07 06:59:08;;;;;;;17.20;15.40;;;3.90;1.00;;;;;;5097855;28;20168;-39
2024/01/07 07:01:33;;;;;;;17.47;15.67;;;3.90;1.00;;;;;;5098190;28;20442;-38
2024/01/07 07:03:59;;;;;;;18.37;14.80;;;3.90;1.00;;;;;;5104931;28;20511;-38
2024/01/07 07:06:24;;;;;;;18.03;15.40;;;3.80;1.00;;;;;;5116387;28;20176;-37
2024/01/07 07:08:50;;;;;;;17.20;15.40;;;3.80;1.00;;;;;;5116457;28;20168;-38
2024/01/07 07:11:16;;;;;;;20.40;15.70;;;3.90;1.00;;;;;;5117139;28;20183;-36
2024/01/07 07:13:41;;;;;;;18.10;15.53;;;3.80;1.00;;;;;;5117211;28;20206;-36
2024/01/07 07:16:07;;;;;;;17.80;14.90;;;3.80;1.00;;;;;;5116818;28;20414;-38
2024/01/07 07:18:33;;;;;;;17.80;15.37;;;3.80;1.00;;;;;;5116441;27;20204;-38
2024/01/07 07:20:58;;;;;;;16.93;14.20;;;3.80;1.00;;;;;;5116679;28;20580;-37
2024/01/07 07:23:24;;;;;;;17.17;14.67;;;3.80;1.00;;;;;;5116665;28;20171;-38
2024/01/07 07:25:49;;;;;;;17.57;14.97;;;3.80;1.00;;;;;;5115415;28;20275;-38
2024/01/07 07:28:17;;;;;;;18.77;14.37;;;3.80;1.00;;;;;;5116221;28;20175;-38
2024/01/07 07:30:42;;;;;;;16.20;14.50;;;3.80;1.00;;;;;;5115532;28;20539;-37
2024/01/07 07:33:08;;;;;;;17.50;14.10;;;3.70;1.00;;;;;;5116334;28;20453;-37
2024/01/07 07:35:33;;;;;;;17.53;15.30;;;3.70;1.00;;;;;;5115932;28;20211;-39
2024/01/07 07:37:59;;;;;;;17.30;14.77;;;3.60;1.00;;;;;;5109279;28;20207;-39
2024/01/07 07:40:24;;;;;;;16.77;14.90;;;3.70;1.00;;;;;;5094007;28;20416;-38
2024/01/07 07:42:51;;;;;;;17.40;14.73;;;3.60;1.00;;;;;;5091954;28;20176;-41
2024/01/07 07:45:16;;;;;;;17.30;14.20;;;3.60;1.00;;;;;;5092839;28;20522;-39
2024/01/07 07:47:44;;;;;;;17.57;14.83;;;3.60;1.00;;;;;;5091615;28;20422;-39
2024/01/07 07:50:10;;;;;;;14.37;12.77;;;3.60;1.00;;;;;;5093386;28;20168;-38
2024/01/07 07:52:36;;;;;;;15.47;13.20;;;3.60;1.00;;;;;;5093504;28;20469;-39
2024/01/07 07:55:02;;;;;;;15.83;12.90;;;3.60;1.00;;;;;;5093280;28;20754;-38
2024/01/07 07:57:28;;;;;;;15.00;12.80;;;3.60;1.00;;;;;;5094738;28;20218;-38
2024/01/07 07:59:55;;;;;;;15.30;13.00;;;3.60;1.00;;;;;;5094009;28;20575;-41
2024/01/07 08:02:21;;;;;;;14.23;12.73;;;3.60;1.00;;;;;;5094265;28;20432;-39
2024/01/07 08:04:47;;;;;;;13.97;12.60;;;3.60;1.00;;;;;;5093842;28;20824;-38
2024/01/07 08:07:12;;;;;;;14.57;12.57;;;3.70;1.00;;;;;;5093249;28;20168;-36
2024/01/07 08:09:38;;;;;;;14.57;11.83;;;3.60;1.00;;;;;;5093632;28;20442;-38
2024/01/07 08:12:04;;;;;;;15.33;13.03;;;3.60;1.00;;;;;;5094092;28;20313;-37
2024/01/07 08:14:31;;;;;;;12.57;10.90;;;3.70;99.90;;;;;;5094455;28;20597;-37
2024/01/07 08:16:57;;;;;;;18.00;13.13;;;3.60;99.90;;;;;;5094627;28;20983;-38
2024/01/07 08:19:22;;;;;;;14.50;11.60;;;3.60;99.90;;;;;;5094565;28;20422;-38
2024/01/07 08:21:48;;;;;;;14.80;13.30;;;3.60;1.00;;;;;;5096069;28;20180;-38
2024/01/07 08:24:13;;;;;;;13.63;12.20;;;3.60;1.00;;;;;;5096201;28;20168;-35
2024/01/07 08:26:39;;;;;;;13.40;11.20;;;3.70;99.90;;;;;;5096575;28;20637;-43
2024/01/07 08:29:04;;;;;;;14.93;12.20;;;3.60;99.90;;;;;;5094226;28;20168;-37
2024/01/07 08:31:31;;;;;;;12.40;11.20;;;3.60;99.90;;;;;;5093057;28;20172;-37
2024/01/07 08:33:56;;;;;;;16.70;14.93;;;3.50;99.90;;;;;;5094982;28;20230;-37
2024/01/07 08:36:22;;;;;;;15.83;12.27;;;3.50;99.90;;;;;;5095013;28;20411;-37
2024/01/07 08:38:48;;;;;;;14.10;12.63;;;3.50;99.90;;;;;;5096213;28;20547;-37
2024/01/07 08:41:15;;;;;;;17.33;10.80;;;3.50;99.90;;;;;;5095387;28;20719;-39
2024/01/07 08:43:41;;;;;;;12.23;10.83;;;3.60;99.90;;;;;;5094791;28;20211;-39
2024/01/07 08:46:07;;;;;;;15.40;11.80;;;3.60;99.90;;;;;;5095794;28;20457;-38
2024/01/07 08:48:32;;;;;;;13.63;12.23;;;3.60;99.90;;;;;;5096237;28;20531;-37
2024/01/07 08:50:58;;;;;;;11.63;10.10;;;3.70;99.90;;;;;;5096890;28;20191;-37
2024/01/07 08:53:23;;;;;;;13.00;10.90;;;3.70;99.90;;;;;;5097609;28;20188;-38
2024/01/07 08:55:49;;;;;;;12.20;10.00;;;3.70;99.90;;;;;;5099574;28;20188;-36
2024/01/07 08:58:16;;;;;;;13.27;11.27;;;3.80;99.90;;;;;;5098880;28;20219;-36
2024/01/07 09:00:42;;;;;;;13.37;10.77;;;3.80;99.90;;;;;;5097225;28;20219;-36
2024/01/07 09:03:08;;;;;;;12.90;10.97;;;3.80;99.90;;;;;;5098685;28;20406;-36
2024/01/07 09:05:33;;;;;;;15.30;10.67;;;3.80;99.90;;;;;;5099738;28;20224;-37
2024/01/07 09:08:00;;;;;;;12.53;10.90;;;3.70;99.90;;;;;;5098825;28;20173;-37
2024/01/07 09:10:26;;;;;;;13.40;11.63;;;3.80;99.90;;;;;;5098037;28;20466;-36
2024/01/07 09:12:53;;;;;;;13.40;12.00;;;3.80;99.90;;;;;;5099912;28;20517;-38
2024/01/07 09:15:19;;;;;;;12.50;11.10;;;3.80;99.90;;;;;;5100063;28;20539;-36
2024/01/07 09:17:45;;;;;;;13.00;10.60;;;3.80;99.90;;;;;;5098677;28;20462;-36
2024/01/07 09:20:11;;;;;;;13.60;10.50;;;3.80;99.90;;;;;;5099466;28;20869;-37
2024/01/07 09:22:36;;;;;;;13.77;11.03;;;3.80;99.90;;;;;;5080946;28;20434;-40
2024/01/07 09:25:06;;;;;;;13.33;10.50;;;3.90;99.90;;;;;;5098423;28;20177;-36
2024/01/07 09:27:32;;;;;;;14.10;11.37;;;3.80;99.90;;;;;;5098135;28;20211;-38
2024/01/07 09:29:58;;;;;;;12.33;9.93;;;3.70;99.90;;;;;;5098544;28;20753;-38
2024/01/07 09:32:23;;;;;;;9.70;8.70;;;3.70;99.90;;;;;;5096402;28;20524;-37
2024/01/07 09:34:49;;;;;;;10.67;9.17;;;3.60;99.90;;;;;;5096025;28;20192;-37
2024/01/07 09:37:14;;;;;;;11.13;9.70;;;3.60;99.90;;;;;;5095132;28;20207;-36
2024/01/07 09:39:41;;;;;;;12.27;9.17;;;3.60;99.90;;;;;;5095794;28;20180;-37
2024/01/07 09:42:12;;;;;;;13.17;9.67;;;3.60;99.90;;;;;;5098368;28;20226;-38
2024/01/07 09:44:38;;;;;;;11.57;8.87;;;3.70;99.90;;;;;;5097278;28;20473;-36
2024/01/07 09:47:05;;;;;;;9.93;8.60;;;3.80;99.90;;;;;;5098166;28;20430;-37
2024/01/07 09:49:31;;;;;;;10.47;7.90;;;3.90;99.90;;;;;;5097693;28;20180;-36
2024/01/07 09:52:01;;;;;;;12.33;8.57;;;4.00;5.10;;;;;;5097427;28;20487;-37
2024/01/07 09:54:27;;;;;;;11.10;8.80;;;4.20;9.50;;;;;;5096831;28;20188;-37
2024/01/07 09:56:57;;;;;;;11.93;8.63;;;4.30;1.00;;;;;;5098393;28;20457;-37
2024/01/07 09:59:23;;;;;;;10.70;8.60;;;4.50;1.00;;;;;;5097133;28;20426;-36
2024/01/07 10:01:49;;;;;;;9.57;8.20;;;4.70;99.90;;;;;;5098709;28;20497;-38
2024/01/07 10:04:14;;;;;;;10.47;9.37;;;4.80;99.90;;;;;;5097137;28;20173;-37
2024/01/07 10:06:40;;;;;;;9.73;8.73;;;4.90;31.50;;;;;;5098422;28;20575;-37
2024/01/07 10:09:06;;;;;;;8.50;7.57;;;4.90;1.00;;;;;;5098853;28;20172;-39
2024/01/07 10:11:32;;;;;;;9.73;7.77;;;4.90;51.70;;;;;;5098170;28;20499;-38
2024/01/07 10:13:58;;;;;;;9.97;8.40;;;4.70;99.90;;;;;;5095036;28;20435;-37
2024/01/07 10:16:23;;;;;;;12.60;10.90;;;4.60;1.00;;;;;;5093669;28;20430;-38
2024/01/07 10:18:49;;;;;;;9.00;8.00;;;4.60;1.00;;;;;;5096117;28;20185;-38
2024/01/07 10:21:14;;;;;;;9.60;8.60;;;4.50;1.00;;;;;;5097982;28;20173;-38
2024/01/07 10:23:41;;;;;;;16.93;12.97;;;4.40;1.00;;;;;;5098373;28;20274;-37
2024/01/07 10:26:06;;;;;;;16.00;12.67;;;4.30;1.00;;;;;;5096230;28;20180;-38
2024/01/07 10:28:32;;;;;;;9.17;8.17;;;4.30;7.00;;;;;;5096353;28;20503;-37
2024/01/07 10:30:58;;;;;;;11.23;9.33;;;4.30;1.00;;;;;;5094639;28;20832;-38
2024/01/07 10:33:23;;;;;;;13.20;10.47;;;4.20;1.00;;;;;;5092989;28;20172;-38
2024/01/07 10:35:57;;;;;;;14.73;10.73;;;4.20;1.00;;;;;;5093550;28;20283;-38
2024/01/07 10:38:22;;;;;;;10.33;9.23;;;4.10;1.00;;;;;;5094305;28;20895;-38
2024/01/07 10:40:50;;;;;;;10.20;8.00;;;4.10;1.00;;;;;;5095311;28;20426;-38
2024/01/07 10:43:16;;;;;;;13.77;10.70;;;4.00;99.90;;;;;;5094600;28;20263;-39
2024/01/07 10:45:43;;;;;;;13.27;10.20;;;4.00;68.50;;;;;;5094291;28;20473;-37
2024/01/07 10:48:10;;;;;;;11.67;10.20;;;3.90;50.40;;;;;;5092932;28;20577;-38
2024/01/07 10:50:36;;;;;;;12.63;10.50;;;3.80;99.90;;;;;;5095031;28;20488;-37
2024/01/07 10:53:07;;;;;;;11.33;9.83;;;3.80;99.90;;;;;;5095575;28;20426;-38
2024/01/07 10:55:38;;;;;;;13.23;10.23;;;3.80;99.90;;;;;;5096134;28;20601;-37
2024/01/07 10:58:04;;;;;;;13.80;10.50;;;3.70;99.90;;;;;;5096073;28;20499;-37
2024/01/07 11:00:31;;;;;;;12.50;10.30;;;3.60;99.90;;;;;;5097621;28;20521;-37
2024/01/07 11:03:14;;;;;;;10.50;8.67;;;3.50;99.90;;;;;;5095647;28;20854;-37
2024/01/07 11:05:46;;;;;;;9.70;8.50;;;3.50;1.00;;;;;;5096658;28;20503;-37
2024/01/07 11:08:26;;;;;;;10.07;9.00;;;3.40;1.00;;;;;;5093772;28;20544;-39
2024/01/07 11:11:20;;;;;;;9.40;8.30;;;3.40;19.80;;;;;;5095038;28;20426;-39
2024/01/07 11:13:46;;;;;;;10.87;9.30;;;3.20;40.30;;;;;;5094872;28;20432;-36
2024/01/07 11:16:12;;;;;;;8.93;8.03;;;3.20;99.90;;;;;;5094778;28;20848;-36
2024/01/07 11:18:45;;;;;;;11.53;8.83;;;3.20;99.90;;;;;;5094936;28;20204;-38
2024/01/07 11:21:11;;;;;;;9.20;7.90;;;3.10;39.90;;;;;;5097068;28;20535;-38
2024/01/07 11:23:43;;;;;;;9.70;8.07;;;3.10;99.90;;;;;;5096205;28;20530;-39
2024/01/07 11:26:09;;;;;;;9.80;8.47;;;3.10;99.90;;;;;;5095105;28;20535;-38
2024/01/07 11:28:58;;;;;;;13.87;10.07;;;3.10;22.60;;;;;;5093833;28;20515;-40
2024/01/07 11:31:38;;;;;;;9.17;8.17;;;3.00;99.90;;;;;;5096067;28;20684;-38
2024/01/07 11:34:04;;;;;;;9.23;8.27;;;3.00;99.90;;;;;;5094650;28;20832;-38
2024/01/07 11:36:29;;;;;;;11.13;8.80;;;3.10;99.90;;;;;;5095781;28;20456;-37
2024/01/07 11:38:55;;;;;;;8.43;7.50;;;3.10;99.90;;;;;;5095172;28;20169;-37
2024/01/07 11:41:21;;;;;;;9.80;8.80;;;3.20;99.90;;;;;;5093964;28;20172;-39
2024/01/07 11:43:58;;;;;;;8.30;6.97;;;3.20;1.00;;;;;;5095495;28;20961;-41
2024/01/07 11:46:25;;;;;;;9.53;8.30;;;3.20;1.00;;;;;;5094310;28;20419;-39
2024/01/07 11:48:58;;;;;;;9.10;8.20;;;3.20;99.90;;;;;;5093490;28;20437;-38
2024/01/07 11:51:31;;;;;;;10.63;8.67;;;3.10;99.90;;;;;;5096327;28;20711;-38
2024/01/07 11:54:00;;;;;;;8.97;8.07;;;3.10;99.90;;;;;;5096607;28;20414;-38
2024/01/07 11:56:26;;;;;;;8.93;7.30;;;3.00;1.00;;;;;;5095603;28;20430;-38
2024/01/07 11:58:51;;;;;;;8.30;7.50;;;3.00;1.00;;;;;;5093615;28;20553;-38
2024/01/07 12:01:18;;;;;;;12.60;9.73;;;3.00;1.00;;;;;;5092964;28;20255;-37
2024/01/07 12:03:44;;;;;;;9.70;8.37;;;3.10;1.00;;;;;;5092756;28;20200;-39
2024/01/07 12:06:13;;;;;;;11.50;10.30;;;3.10;1.00;;;;;;5094133;28;20411;-38
2024/01/07 12:08:45;;;;;;;8.73;7.83;;;3.10;1.00;;;;;;5093564;28;20691;-38
2024/01/07 12:11:14;;;;;;;11.30;8.53;;;3.10;1.00;;;;;;5094447;28;20463;-38
2024/01/07 12:13:40;;;;;;;13.40;10.43;;;3.00;1.00;;;;;;5094369;28;20430;-38
2024/01/07 12:16:06;;;;;;;11.93;8.63;;;3.00;99.90;;;;;;5095223;28;20483;-38
2024/01/07 12:18:32;;;;;;;9.63;8.40;;;3.00;1.00;;;;;;5095164;28;20481;-39
2024/01/07 12:20:59;;;;;;;11.40;8.77;;;3.00;1.00;;;;;;5096618;28;20681;-40
2024/01/07 12:23:28;;;;;;;11.27;8.60;;;3.00;1.00;;;;;;5092776;28;20186;-38
2024/01/07 12:25:55;;;;;;;10.43;9.40;;;3.00;1.00;;;;;;5094469;28;20692;-38
2024/01/07 12:28:21;;;;;;;8.97;8.07;;;3.00;1.00;;;;;;5095741;28;20525;-37
2024/01/07 12:30:50;;;;;;;8.50;7.67;;;2.90;1.00;;;;;;5097422;28;20772;-40
2024/01/07 12:33:18;;;;;;;12.53;8.83;;;2.90;1.00;;;;;;5095613;28;20168;-42
2024/01/07 12:35:45;;;;;;;12.17;8.50;;;3.40;1.00;;;;;;5096001;28;20509;-49
2024/01/07 12:38:10;;;;;;;18.97;13.17;;;4.60;1.00;;;;;;5093835;28;20466;-43
2024/01/07 12:40:36;;;;;;;18.57;14.70;;;5.90;1.00;;;;;;5096155;28;20677;-45
2024/01/07 12:43:02;;;;;;;11.83;10.53;;;6.60;1.00;;;;;;5097257;28;20173;-43
2024/01/07 12:45:27;;;;;;;8.77;7.97;;;6.50;1.00;;;;;;5096328;28;20613;-41